KRKD

Knox County Regional Airport

Rockland, Maine, USA
METAR KRKD 181256Z AUTO 30014G23KT 10SM OVC090 M06/M10 A2957 RMK AO2 PK WND 29029/1214 SNE1159 SLP016 P0000 T10611100 FZRANO
Observed Flight Rules
Dec-18 @ 12:56 UTC (46 minutes ago) Visual Flight Rules
Wind Visibility Clouds
300° at 14 knots
 Gusting to 23 knots
10 miles
  • Overcast at 9,000' AGL
Temperatures Readings Precipitation
Current -6°C / 21°F
Dewpoint -10°C / 14°F
Humidity 74%
Altimeter 29.57" Hg
Pressure 1001.6 hPa
Elevation 17
Current Rain 0.005
METAR KRKD 181256Z AUTO 30014G23KT 10SM OVC090 M06/M10 A2957 RMK AO2 PK WND 29029/1214 SNE1159 SLP016 P0000 T10611100 FZRANO
Observed Flight Rules
Dec-18 @ 12:56 UTC
(46 minutes ago)
VFR
Wind Visibility
300° at 14 knots
 Gusting to 23 knots
10 miles
Clouds
  • Overcast at 9,000' AGL
Temperature Dewpoint
-6°C / 21°F -10°C / 14°F
Humidity Altimeter Pressure
74% 29.57" Hg 1001.6 hPa
Current Rain
0.005